sensor_id;sensor_type;location;lat;lon;timestamp;P1;durP1;ratioP1;P2;durP2;ratioP2
7883;SDS011;3987;51.458;7.238;2023-08-06T00:01:49;5.13;;;4.70;;
7883;SDS011;3987;51.458;7.238;2023-08-06T00:16:50;5.20;;;4.70;;
7883;SDS011;3987;51.458;7.238;2023-08-06T00:31:50;4.63;;;4.43;;
7883;SDS011;3987;51.458;7.238;2023-08-06T00:46:51;4.67;;;4.43;;
7883;SDS011;3987;51.458;7.238;2023-08-06T01:01:51;5.00;;;4.60;;
7883;SDS011;3987;51.458;7.238;2023-08-06T01:16:51;6.33;;;5.43;;
7883;SDS011;3987;51.458;7.238;2023-08-06T01:31:55;5.03;;;4.93;;
7883;SDS011;3987;51.458;7.238;2023-08-06T01:46:56;6.07;;;5.67;;
7883;SDS011;3987;51.458;7.238;2023-08-06T02:01:57;5.47;;;5.23;;
7883;SDS011;3987;51.458;7.238;2023-08-06T02:16:59;5.50;;;5.20;;
7883;SDS011;3987;51.458;7.238;2023-08-06T02:32:00;5.10;;;5.00;;
7883;SDS011;3987;51.458;7.238;2023-08-06T02:47:03;5.63;;;4.73;;
7883;SDS011;3987;51.458;7.238;2023-08-06T03:02:04;5.13;;;5.03;;
7883;SDS011;3987;51.458;7.238;2023-08-06T03:17:23;5.50;;;4.10;;
7883;SDS011;3987;51.458;7.238;2023-08-06T03:32:24;5.10;;;4.90;;
7883;SDS011;3987;51.458;7.238;2023-08-06T03:47:25;5.37;;;4.87;;
7883;SDS011;3987;51.458;7.238;2023-08-06T04:02:26;6.33;;;4.53;;
7883;SDS011;3987;51.458;7.238;2023-08-06T04:17:27;4.53;;;4.33;;
7883;SDS011;3987;51.458;7.238;2023-08-06T04:32:28;3.10;;;3.00;;
7883;SDS011;3987;51.458;7.238;2023-08-06T04:47:29;4.50;;;3.17;;
7883;SDS011;3987;51.458;7.238;2023-08-06T05:02:29;3.10;;;3.00;;
7883;SDS011;3987;51.458;7.238;2023-08-06T05:17:30;4.13;;;3.77;;
7883;SDS011;3987;51.458;7.238;2023-08-06T05:32:30;3.10;;;3.00;;
7883;SDS011;3987;51.458;7.238;2023-08-06T05:47:31;2.87;;;2.50;;
7883;SDS011;3987;51.458;7.238;2023-08-06T06:02:31;2.50;;;2.50;;
7883;SDS011;3987;51.458;7.238;2023-08-06T06:17:31;2.83;;;2.73;;
7883;SDS011;3987;51.458;7.238;2023-08-06T06:32:32;2.43;;;2.43;;
7883;SDS011;3987;51.458;7.238;2023-08-06T06:47:34;2.60;;;2.50;;
7883;SDS011;3987;51.458;7.238;2023-08-06T07:02:34;2.53;;;2.20;;
7883;SDS011;3987;51.458;7.238;2023-08-06T07:17:35;1.60;;;1.50;;
7883;SDS011;3987;51.458;7.238;2023-08-06T07:32:35;1.60;;;1.60;;
7883;SDS011;3987;51.458;7.238;2023-08-06T07:47:35;1.80;;;1.70;;
7883;SDS011;3987;51.458;7.238;2023-08-06T08:02:36;2.00;;;1.80;;
7883;SDS011;3987;51.458;7.238;2023-08-06T08:17:37;2.17;;;1.63;;
7883;SDS011;3987;51.458;7.238;2023-08-06T08:32:38;2.20;;;2.10;;
7883;SDS011;3987;51.458;7.238;2023-08-06T08:47:39;1.93;;;1.83;;
7883;SDS011;3987;51.458;7.238;2023-08-06T09:02:40;1.83;;;1.83;;
7883;SDS011;3987;51.458;7.238;2023-08-06T09:17:42;2.07;;;1.63;;
7883;SDS011;3987;51.458;7.238;2023-08-06T09:32:45;3.00;;;2.80;;
7883;SDS011;3987;51.458;7.238;2023-08-06T09:47:50;4.03;;;3.80;;
7883;SDS011;3987;51.458;7.238;2023-08-06T10:02:55;6.50;;;5.90;;
7883;SDS011;3987;51.458;7.238;2023-08-06T10:17:59;5.93;;;5.63;;
7883;SDS011;3987;51.458;7.238;2023-08-06T10:33:01;7.40;;;6.80;;
7883;SDS011;3987;51.458;7.238;2023-08-06T10:48:03;5.60;;;5.30;;
7883;SDS011;3987;51.458;7.238;2023-08-06T11:03:04;5.40;;;5.30;;
7883;SDS011;3987;51.458;7.238;2023-08-06T11:18:04;5.60;;;5.27;;
7883;SDS011;3987;51.458;7.238;2023-08-06T11:33:06;5.83;;;5.73;;
7883;SDS011;3987;51.458;7.238;2023-08-06T11:48:07;5.33;;;5.00;;
7883;SDS011;3987;51.458;7.238;2023-08-06T12:03:10;6.80;;;6.23;;
7883;SDS011;3987;51.458;7.238;2023-08-06T12:18:11;6.10;;;6.00;;
7883;SDS011;3987;51.458;7.238;2023-08-06T12:33:11;6.50;;;6.40;;
7883;SDS011;3987;51.458;7.238;2023-08-06T12:48:12;3.40;;;3.40;;
7883;SDS011;3987;51.458;7.238;2023-08-06T13:03:12;1.13;;;1.13;;
7883;SDS011;3987;51.458;7.238;2023-08-06T13:18:12;0.67;;;0.67;;
7883;SDS011;3987;51.458;7.238;2023-08-06T13:33:13;0.60;;;0.60;;
7883;SDS011;3987;51.458;7.238;2023-08-06T13:48:13;1.50;;;0.90;;
7883;SDS011;3987;51.458;7.238;2023-08-06T14:03:14;1.50;;;1.40;;
7883;SDS011;3987;51.458;7.238;2023-08-06T14:18:15;2.47;;;2.47;;
7883;SDS011;3987;51.458;7.238;2023-08-06T14:33:15;4.50;;;4.30;;
7883;SDS011;3987;51.458;7.238;2023-08-06T14:48:16;4.43;;;4.23;;
7883;SDS011;3987;51.458;7.238;2023-08-06T15:03:16;4.43;;;4.23;;
7883;SDS011;3987;51.458;7.238;2023-08-06T15:18:17;4.80;;;4.70;;
7883;SDS011;3987;51.458;7.238;2023-08-06T15:33:17;4.47;;;4.37;;
7883;SDS011;3987;51.458;7.238;2023-08-06T15:48:18;4.10;;;4.00;;
7883;SDS011;3987;51.458;7.238;2023-08-06T16:03:18;3.87;;;3.60;;
7883;SDS011;3987;51.458;7.238;2023-08-06T16:18:19;2.93;;;2.90;;
7883;SDS011;3987;51.458;7.238;2023-08-06T16:33:19;3.30;;;3.10;;
7883;SDS011;3987;51.458;7.238;2023-08-06T16:48:20;3.00;;;2.77;;
7883;SDS011;3987;51.458;7.238;2023-08-06T17:03:27;3.30;;;3.20;;
7883;SDS011;3987;51.458;7.238;2023-08-06T17:18:27;4.70;;;4.50;;
7883;SDS011;3987;51.458;7.238;2023-08-06T17:33:28;5.00;;;4.80;;
7883;SDS011;3987;51.458;7.238;2023-08-06T17:48:28;5.43;;;5.10;;
7883;SDS011;3987;51.458;7.238;2023-08-06T18:03:28;5.07;;;4.60;;
7883;SDS011;3987;51.458;7.238;2023-08-06T18:18:29;5.47;;;5.23;;
7883;SDS011;3987;51.458;7.238;2023-08-06T18:33:30;3.70;;;1.60;;
7883;SDS011;3987;51.458;7.238;2023-08-06T18:48:30;2.80;;;1.37;;
7883;SDS011;3987;51.458;7.238;2023-08-06T19:03:31;1.00;;;1.00;;
7883;SDS011;3987;51.458;7.238;2023-08-06T19:18:32;2.20;;;1.47;;
7883;SDS011;3987;51.458;7.238;2023-08-06T19:33:32;3.73;;;1.43;;
7883;SDS011;3987;51.458;7.238;2023-08-06T19:48:33;3.07;;;1.83;;
7883;SDS011;3987;51.458;7.238;2023-08-06T20:03:33;4.70;;;2.23;;
7883;SDS011;3987;51.458;7.238;2023-08-06T20:18:33;5.33;;;2.00;;
7883;SDS011;3987;51.458;7.238;2023-08-06T20:33:34;3.00;;;1.80;;
7883;SDS011;3987;51.458;7.238;2023-08-06T20:48:35;10.27;;;2.80;;
7883;SDS011;3987;51.458;7.238;2023-08-06T21:03:36;13.37;;;6.30;;
7883;SDS011;3987;51.458;7.238;2023-08-06T21:18:36;9.30;;;8.53;;
7883;SDS011;3987;51.458;7.238;2023-08-06T21:33:37;10.67;;;9.20;;
7883;SDS011;3987;51.458;7.238;2023-08-06T21:48:40;9.40;;;8.40;;
7883;SDS011;3987;51.458;7.238;2023-08-06T22:03:41;10.40;;;9.50;;
7883;SDS011;3987;51.458;7.238;2023-08-06T22:18:45;13.80;;;12.60;;
7883;SDS011;3987;51.458;7.238;2023-08-06T22:33:46;12.00;;;11.00;;
7883;SDS011;3987;51.458;7.238;2023-08-06T22:48:47;10.43;;;9.83;;
7883;SDS011;3987;51.458;7.238;2023-08-06T23:03:47;14.07;;;11.43;;
7883;SDS011;3987;51.458;7.238;2023-08-06T23:18:47;8.57;;;6.83;;
7883;SDS011;3987;51.458;7.238;2023-08-06T23:33:48;5.00;;;4.60;;
7883;SDS011;3987;51.458;7.238;2023-08-06T23:48:48;4.67;;;4.47;;
